Time;durP1;ratioP1;P1;durP2;ratioP2;P2;SDS_P1;SDS_P2;PMS_P1;PMS_P2;Temp;Humidity;BMP_temperature;BMP_pressure;BME280_temperature;BME280_humidity;BME280_pressure;Samples;Min_cycle;Max_cycle;Signal;HPM_P1;HPM_P2
2021/12/04 00:02:17;;;;;;;9.27;6.40;;;;;;;5.58;80.34;97160.66;10295862;28;20048;-58
2021/12/04 00:07:17;;;;;;;12.32;7.10;;;;;;;5.90;79.98;97214.13;10295766;28;20491;-58
2021/12/04 00:12:18;;;;;;;178.30;83.80;;;;;;;5.94;79.96;97205.59;10295393;28;20487;-58
2021/12/04 00:17:17;;;;;;;16.23;10.52;;;;;;;5.83;80.44;97192.59;10295403;28;20069;-58
2021/12/04 00:22:16;;;;;;;31.88;19.00;;;;;;;5.76;79.99;97208.84;10292695;28;20030;-58
2021/12/04 00:27:15;;;;;;;12.07;7.43;;;;;;;5.50;80.27;97167.44;10294933;28;20061;-58
2021/12/04 00:32:21;;;;;;;9.68;6.70;;;;;;;5.67;81.20;97214.78;10293917;28;20069;-58
2021/12/04 00:37:44;;;;;;;21.00;12.95;;;;;;;5.77;81.04;97213.16;10294623;28;20076;-58
2021/12/04 00:53:18;;;;;;;9.85;6.10;;;;;;;5.53;82.29;97213.78;10293755;28;20090;-58
2021/12/04 00:58:17;;;;;;;16.15;10.27;;;;;;;5.48;82.51;97205.16;10292330;28;20042;-58
2021/12/04 01:03:16;;;;;;;13.45;8.48;;;;;;;5.51;82.69;97206.06;10290777;28;20122;-58
2021/12/04 01:08:15;;;;;;;11.10;7.07;;;;;;;5.55;82.61;97212.97;10293379;28;20038;-58
2021/12/04 01:13:14;;;;;;;10.93;7.30;;;;;;;5.60;82.37;97187.25;10292947;28;20076;-58
2021/12/04 01:18:13;;;;;;;15.95;10.00;;;;;;;5.03;82.50;97073.50;10292900;28;20080;-59
2021/12/04 01:23:12;;;;;;;12.90;8.60;;;;;;;5.70;82.41;97159.91;10293418;28;20037;-59
2021/12/04 01:28:12;;;;;;;164.18;76.88;;;;;;;5.68;82.38;97154.72;10292204;28;20069;-58
2021/12/04 01:33:10;;;;;;;11.95;8.52;;;;;;;5.43;83.06;97143.34;10292441;28;20065;-58
2021/12/04 01:38:10;;;;;;;19.35;12.30;;;;;;;5.12;84.15;97147.31;10293036;28;20500;-58
2021/12/04 01:43:09;;;;;;;;;;;;;;;4.99;84.17;97148.88;10292462;28;20120;-58
2021/12/04 01:48:08;;;;;;;10.85;7.40;;;;;;;4.91;84.84;97161.63;10289546;28;20261;-59
2021/12/04 01:53:07;;;;;;;21.35;13.23;;;;;;;4.43;85.08;97095.06;10292207;28;20077;-59
2021/12/04 01:58:06;;;;;;;15.65;9.40;;;;;;;4.84;84.77;97149.56;10290951;28;20076;-58
2021/12/04 02:03:08;;;;;;;;;;;;;;;4.96;85.29;97161.72;10292139;28;20076;-58
2021/12/04 02:08:09;;;;;;;11.82;8.20;;;;;;;4.28;85.29;97044.38;10290750;28;19956;-58
2021/12/04 02:13:08;;;;;;;15.10;10.65;;;;;;;4.91;85.27;97158.22;10291364;28;20475;-58
2021/12/04 02:18:08;;;;;;;18.27;12.52;;;;;;;5.05;85.52;97190.13;10291187;28;20072;-58
2021/12/04 02:23:08;;;;;;;15.70;10.07;;;;;;;4.92;85.33;97144.50;10290197;28;20431;-58
2021/12/04 02:28:10;;;;;;;14.82;9.30;;;;;;;5.07;85.35;97157.56;10288117;28;20481;-58
2021/12/04 02:33:12;;;;;;;15.07;10.10;;;;;;;4.92;84.74;97121.34;10290912;28;20061;-58
2021/12/04 02:38:11;;;;;;;17.50;11.68;;;;;;;5.47;84.76;97182.84;10290853;28;20069;-58
2021/12/04 02:43:10;;;;;;;11.13;7.22;;;;;;;5.39;84.52;97159.63;10290475;28;20066;-58
2021/12/04 02:48:11;;;;;;;9.80;6.57;;;;;;;5.35;84.04;97170.72;10290504;28;20073;-58
2021/12/04 02:53:10;;;;;;;10.05;6.13;;;;;;;4.90;83.96;97103.34;10291994;28;20082;-58
2021/12/04 02:58:10;;;;;;;8.35;5.15;;;;;;;5.19;83.73;97161.13;10289899;28;20069;-58
2021/12/04 03:03:09;;;;;;;;;;;;;;;5.24;83.33;97164.59;10290788;28;20514;-58
2021/12/04 03:08:07;;;;;;;8.77;5.15;;;;;;;5.19;83.32;97167.13;10296700;28;19916;-58
2021/12/04 03:13:09;;;;;;;10.35;6.90;;;;;;;5.24;83.04;97155.16;10295995;28;20387;-58
2021/12/04 03:18:09;;;;;;;11.00;7.25;;;;;;;5.07;83.20;97142.13;10297520;28;20069;-58
2021/12/04 03:23:16;;;;;;;9.45;5.97;;;;;;;4.35;83.10;97047.91;10296202;28;20073;-58
2021/12/04 03:28:17;;;;;;;9.32;5.68;;;;;;;4.51;83.08;97096.06;10294963;28;20127;-58
2021/12/04 03:43:51;;;;;;;11.05;7.25;;;;;;;4.97;82.80;97175.44;10297253;28;20073;-59
2021/12/04 03:48:50;;;;;;;9.55;6.25;;;;;;;4.96;82.66;97169.44;10296793;28;20041;-58
2021/12/04 03:53:49;;;;;;;12.38;6.85;;;;;;;4.87;82.89;97177.00;10293225;28;20546;-58
2021/12/04 03:58:49;;;;;;;8.70;6.15;;;;;;;4.34;82.66;97106.13;10296419;28;20081;-58
2021/12/04 04:03:48;;;;;;;8.68;5.40;;;;;;;4.85;82.55;97191.53;10293820;28;20069;-59
2021/12/04 04:08:48;;;;;;;7.18;4.80;;;;;;;4.77;82.42;97185.47;10294251;28;20073;-58
2021/12/04 04:13:47;;;;;;;7.07;4.38;;;;;;;4.46;82.58;97149.94;10295738;28;20062;-59
2021/12/04 04:18:46;;;;;;;8.80;6.07;;;;;;;4.64;82.78;97207.53;10294400;28;20074;-58
2021/12/04 04:23:45;;;;;;;8.65;5.68;;;;;;;4.59;83.29;97220.34;10295307;28;20038;-58
2021/12/04 04:28:44;;;;;;;9.27;6.50;;;;;;;4.52;83.49;97233.94;10295215;28;20116;-58
2021/12/04 04:33:44;;;;;;;9.63;5.85;;;;;;;4.45;83.53;97237.25;10294618;28;20061;-58
2021/12/04 04:39:10;;;;;;;9.95;6.45;;;;;;;4.14;83.97;97208.56;10292286;28;20065;-58
2021/12/04 05:16:15;;;;;;;13.18;8.38;;;;;;;3.70;84.30;97285.66;10296353;28;20072;-58
2021/12/04 05:21:15;;;;;;;;;;;;;;;3.66;84.29;97294.16;10263691;28;20061;-58
2021/12/04 05:26:18;;;;;;;18.57;11.50;;;;;;;3.42;84.35;97264.66;10291401;28;19951;-58
2021/12/04 05:31:17;;;;;;;12.02;6.82;;;;;;;3.11;82.89;97246.91;10292338;28;20068;-58
2021/12/04 05:36:16;;;;;;;9.32;5.25;;;;;;;3.20;79.02;97295.81;10293824;28;20061;-58
2021/12/04 05:41:16;;;;;;;13.90;7.95;;;;;;;3.27;80.05;97284.84;10293211;28;20065;-58
2021/12/04 05:46:23;;;;;;;14.32;9.07;;;;;;;3.23;79.93;97283.91;10293785;28;20072;-58
2021/12/04 05:56:40;;;;;;;14.45;9.55;;;;;;;3.18;79.49;97300.03;10291716;28;20065;-58
2021/12/04 06:01:39;;;;;;;14.85;9.18;;;;;;;2.72;78.53;97243.56;10289812;28;20022;-58
2021/12/04 06:06:38;;;;;;;21.45;13.82;;;;;;;2.98;79.68;97307.31;10290885;28;20147;-58
2021/12/04 06:11:37;;;;;;;17.27;11.70;;;;;;;2.26;79.99;97190.47;10293483;28;20065;-58
2021/12/04 06:16:36;;;;;;;16.50;11.10;;;;;;;2.50;80.45;97274.66;10293465;28;20049;-58
2021/12/04 06:26:53;;;;;;;16.40;10.93;;;;;;;2.70;80.49;97304.16;10293549;28;20065;-58
2021/12/04 06:31:52;;;;;;;16.25;10.63;;;;;;;2.77;81.27;97297.47;10293387;28;20030;-58
2021/12/04 06:36:51;;;;;;;20.35;12.55;;;;;;;2.90;81.06;97304.59;10293261;28;20038;-58
2021/12/04 06:41:50;;;;;;;20.30;11.82;;;;;;;3.06;80.52;97300.66;10295452;28;20449;-58
2021/12/04 06:46:50;;;;;;;18.88;11.77;;;;;;;3.25;80.40;97304.47;10298990;28;20053;-58
2021/12/04 06:51:51;;;;;;;17.30;10.77;;;;;;;3.21;80.51;97301.00;10298398;28;20542;-58
2021/12/04 06:56:51;;;;;;;10.40;6.82;;;;;;;3.33;80.42;97315.75;10299454;28;20526;-58
2021/12/04 07:01:50;;;;;;;13.57;8.73;;;;;;;3.35;80.82;97326.03;10247431;28;20620;-59
2021/12/04 07:06:50;;;;;;;17.33;10.07;;;;;;;3.23;80.61;97293.31;10299627;28;20061;-58
2021/12/04 07:11:49;;;;;;;12.10;6.72;;;;;;;3.58;80.34;97326.50;10300434;28;20069;-58
2021/12/04 07:16:48;;;;;;;13.00;7.00;;;;;;;3.68;80.15;97335.22;10296855;28;20034;-58
2021/12/04 07:21:47;;;;;;;14.65;8.32;;;;;;;3.86;80.26;97325.31;10299986;28;20026;-58
2021/12/04 07:26:46;;;;;;;17.27;9.38;;;;;;;4.08;79.89;97335.16;10297597;28;20095;-58
2021/12/04 07:31:45;;;;;;;15.55;8.70;;;;;;;4.28;79.56;97327.75;10299742;28;20057;-58
2021/12/04 07:36:44;;;;;;;9.90;7.03;;;;;;;4.34;79.14;97321.00;10298914;28;20061;-58
2021/12/04 07:41:43;;;;;;;11.77;6.78;;;;;;;4.55;79.00;97317.91;10297034;28;20030;-59
2021/12/04 07:46:42;;;;;;;11.02;6.97;;;;;;;3.94;77.81;97179.13;10296914;28;20529;-58
2021/12/04 07:51:43;;;;;;;10.23;6.40;;;;;;;4.80;76.56;97285.72;10280733;28;20801;-58
2021/12/04 07:56:42;;;;;;;9.27;6.38;;;;;;;5.06;75.86;97281.88;10270859;28;20443;-58
2021/12/04 08:01:41;;;;;;;;;;;;;;;5.42;76.27;97283.16;10297883;28;20058;-59
2021/12/04 08:06:40;;;;;;;21.55;11.48;;;;;;;5.84;74.89;97271.59;10297886;28;19913;-58
2021/12/04 08:11:39;;;;;;;14.55;9.60;;;;;;;6.15;74.18;97256.41;10296675;28;20756;-58
2021/12/04 08:16:38;;;;;;;15.32;10.77;;;;;;;6.23;73.12;97218.69;10297823;28;20022;-58
2021/12/04 08:21:37;;;;;;;18.27;10.88;;;;;;;6.51;71.33;97245.50;10296606;28;20065;-59
2021/12/04 08:26:38;;;;;;;15.88;10.80;;;;;;;6.61;70.14;97233.56;10298421;28;20034;-59
2021/12/04 08:31:37;;;;;;;18.15;11.57;;;;;;;6.31;67.68;97206.72;10297142;28;20068;-58
2021/12/04 08:36:36;;;;;;;15.13;10.48;;;;;;;6.43;68.23;97225.72;10299047;28;20057;-58
2021/12/04 08:41:36;;;;;;;15.45;10.18;;;;;;;6.52;68.67;97230.94;10297761;28;20034;-59
2021/12/04 08:46:37;;;;;;;15.88;11.60;;;;;;;6.47;66.93;97191.34;10297933;28;20494;-58
2021/12/04 08:51:37;;;;;;;15.63;10.52;;;;;;;6.46;65.69;97213.69;10294901;28;20105;-58
2021/12/04 08:56:35;;;;;;;19.05;11.75;;;;;;;6.33;64.81;97219.63;10297180;28;20065;-58
2021/12/04 09:01:38;;;;;;;25.20;15.63;;;;;;;6.13;64.24;97209.16;10296083;28;20030;-59
2021/12/04 09:06:38;;;;;;;22.48;13.85;;;;;;;5.89;65.38;97186.66;10295721;28;20050;-58
2021/12/04 09:11:47;;;;;;;14.57;10.07;;;;;;;5.96;65.26;97193.59;10295763;28;20064;-58
2021/12/04 09:16:49;;;;;;;18.83;12.68;;;;;;;6.00;65.66;97199.59;10296366;28;20470;-58
2021/12/04 09:21:50;;;;;;;14.65;8.57;;;;;;;6.08;65.77;97201.41;10295551;28;20061;-59
2021/12/04 10:20:03;;;;;;;8.30;5.80;;;;;;;6.32;64.17;97218.75;10281744;28;20069;-58
2021/12/04 10:35:42;;;;;;;9.43;6.20;;;;;;;6.75;62.43;97182.03;10294537;28;20057;-58
2021/12/04 10:40:46;;;;;;;8.10;5.30;;;;;;;6.76;62.46;97112.44;10293667;28;20562;-58
2021/12/04 10:45:50;;;;;;;7.93;5.40;;;;;;;6.99;61.22;97155.53;10291757;28;20061;-58
2021/12/04 10:56:10;;;;;;;12.82;8.75;;;;;;;7.29;61.72;97133.22;10293979;28;20062;-59
2021/12/04 11:38:03;;;;;;;9.45;5.85;;;;;;;6.88;61.95;97149.44;10300876;28;20507;-59
2021/12/04 11:43:07;;;;;;;25.33;15.07;;;;;;;6.49;61.04;97078.81;10295875;28;20062;-59
2021/12/04 11:48:06;;;;;;;9.32;5.45;;;;;;;7.08;59.90;97150.41;10300015;28;20065;-59
2021/12/04 11:53:11;;;;;;;9.18;6.68;;;;;;;7.16;60.34;97153.84;10297629;28;20072;-59
2021/12/04 11:58:41;;;;;;;7.55;4.55;;;;;;;7.41;60.87;97146.19;10299893;28;20065;-59
2021/12/04 12:03:52;;;;;;;10.50;7.53;;;;;;;6.95;60.80;97097.88;10297922;28;20078;-59
2021/12/04 12:09:00;;;;;;;11.32;7.85;;;;;;;7.21;60.14;97146.97;10298816;28;20508;-59
2021/12/04 12:14:09;;;;;;;5.90;3.67;;;;;;;7.13;61.09;97117.72;10298188;28;20057;-59
2021/12/04 12:19:22;;;;;;;5.95;4.13;;;;;;;7.43;60.94;97147.06;10298283;28;20064;-59
2021/12/04 12:40:40;;;;;;;6.65;4.22;;;;;;;6.44;60.32;97005.78;10294758;28;20077;-59
2021/12/04 12:45:39;;;;;;;8.55;5.20;;;;;;;7.30;60.12;97161.63;10297787;28;20057;-59
2021/12/04 12:50:46;;;;;;;7.65;4.75;;;;;;;7.31;60.78;97157.31;10297137;28;20062;-59
2021/12/04 12:55:49;;;;;;;9.75;6.22;;;;;;;7.20;59.57;97142.69;10297139;28;20072;-58
2021/12/04 13:16:50;;;;;;;7.55;5.32;;;;;;;7.27;60.22;97161.63;10295470;28;20054;-59
2021/12/04 13:21:52;;;;;;;9.52;6.55;;;;;;;7.20;61.05;97163.31;10295073;28;20680;-59
2021/12/04 13:26:53;;;;;;;10.20;6.55;;;;;;;7.09;61.60;97140.94;10293690;28;20073;-59
2021/12/04 13:31:54;;;;;;;14.25;10.73;;;;;;;7.12;61.81;97140.94;10295354;28;20057;-59
2021/12/04 13:36:54;;;;;;;16.95;10.02;;;;;;;6.87;61.70;97109.91;10294371;28;20053;-59
2021/12/04 13:41:53;;;;;;;;;;;;;;;7.10;61.10;97145.22;10294179;28;20073;-59
2021/12/04 13:47:03;;;;;;;13.77;9.13;;;;;;;7.00;62.26;97140.03;10295594;28;19956;-58
2021/12/04 13:52:08;;;;;;;15.25;9.10;;;;;;;6.94;62.20;97144.31;10290679;28;20069;-59
2021/12/04 13:57:13;;;;;;;14.80;10.15;;;;;;;6.77;62.72;97119.34;10294800;28;20062;-59
2021/12/04 14:02:20;;;;;;;11.32;8.00;;;;;;;6.85;62.75;97141.72;10294124;28;20530;-59
2021/12/04 14:07:19;;;;;;;13.20;9.15;;;;;;;6.46;63.00;97086.53;10295096;28;20057;-59
2021/12/04 14:12:18;;;;;;;15.25;10.80;;;;;;;6.67;63.26;97129.59;10294465;28;20041;-59
2021/12/04 14:17:18;;;;;;;;;;;;;;;6.63;62.81;97127.84;10294320;28;20068;-59
2021/12/04 14:22:19;;;;;;;17.08;11.57;;;;;;;6.25;63.04;97075.28;10295141;28;19952;-59
2021/12/04 14:27:22;;;;;;;15.55;9.82;;;;;;;6.32;62.79;97120.81;10292728;28;20058;-59
2021/12/04 14:32:27;;;;;;;13.98;10.48;;;;;;;6.30;63.10;97119.09;10292195;28;20093;-59
2021/12/04 14:37:27;;;;;;;16.83;11.65;;;;;;;6.29;64.07;97115.66;10293024;28;20522;-59
2021/12/04 14:42:30;;;;;;;15.32;9.43;;;;;;;6.25;64.50;97113.91;10293859;28;20058;-59
2021/12/04 14:47:34;;;;;;;17.25;11.43;;;;;;;6.20;64.25;97115.63;10292546;28;20527;-59
2021/12/04 14:52:35;;;;;;;18.63;12.07;;;;;;;5.94;64.98;97075.09;10292228;28;20539;-59
2021/12/04 14:57:34;;;;;;;23.10;13.07;;;;;;;5.88;64.75;97062.22;10292651;28;20061;-59
2021/12/04 15:02:33;;;;;;;19.83;13.63;;;;;;;5.96;64.71;97063.09;10296018;28;20030;-59
2021/12/04 15:07:33;;;;;;;;;;;;;;;6.22;64.55;97113.06;10301261;28;20504;-59
2021/12/04 15:12:34;;;;;;;19.25;13.00;;;;;;;5.68;64.92;97030.31;10301102;28;19952;-59
2021/12/04 15:17:34;;;;;;;17.83;12.43;;;;;;;6.19;65.34;97113.91;10298058;28;20060;-59
2021/12/04 15:22:37;;;;;;;15.25;11.05;;;;;;;6.17;64.97;97105.31;10300448;28;20845;-59
2021/12/04 15:27:36;;;;;;;19.88;14.23;;;;;;;5.94;64.97;97090.56;10298493;28;20068;-59
2021/12/04 15:32:38;;;;;;;30.45;21.95;;;;;;;5.89;66.07;97101.69;10296904;28;20108;-59
2021/12/04 15:37:47;;;;;;;35.95;24.38;;;;;;;5.74;66.38;97110.13;10298418;28;20185;-59
2021/12/04 15:42:59;;;;;;;44.45;31.27;;;;;;;5.37;66.37;97057.50;10299250;28;20120;-59
2021/12/04 15:53:22;;;;;;;46.13;28.92;;;;;;;4.95;66.57;96984.28;10299776;28;20084;-59
2021/12/04 15:58:28;;;;;;;;;;;;;;;5.54;66.80;97105.72;10294802;28;20423;-59
2021/12/04 16:03:27;;;;;;;26.15;17.27;;;;;;;5.53;66.98;97101.44;10287798;28;20012;-59
2021/12/04 16:08:29;;;;;;;54.58;39.10;;;;;;;4.99;66.77;97015.19;10293107;28;20678;-59
2021/12/04 16:13:31;;;;;;;41.05;28.42;;;;;;;5.57;66.91;97096.28;10269609;28;20058;-59
2021/12/04 16:18:30;;;;;;;33.80;22.98;;;;;;;5.60;67.50;97086.00;10283961;28;20061;-59
2021/12/04 16:23:32;;;;;;;35.20;23.25;;;;;;;5.65;66.91;97084.31;10257766;28;20073;-59
2021/12/04 16:28:48;;;;;;;30.90;21.45;;;;;;;5.57;67.54;97084.28;10292384;28;20057;-59
2021/12/04 16:38:47;;;;;;;41.65;25.50;;;;;;;5.31;68.04;97040.34;10296688;28;20058;-59
2021/12/04 16:43:46;;;;;;;41.65;25.52;;;;;;;4.96;68.12;96961.19;10293683;28;20061;-59
2021/12/04 16:48:49;;;;;;;33.90;24.08;;;;;;;5.70;69.11;97092.97;10297043;28;20057;-59
2021/12/04 16:59:13;;;;;;;40.47;26.30;;;;;;;5.76;68.69;97090.41;10297571;28;20894;-59
2021/12/04 17:04:13;;;;;;;43.50;29.25;;;;;;;5.77;68.37;97094.75;10294145;28;20066;-59
2021/12/04 17:09:12;;;;;;;48.40;31.65;;;;;;;5.72;67.98;97093.84;10294708;28;20057;-59
2021/12/04 17:14:11;;;;;;;53.03;34.65;;;;;;;5.76;68.29;97103.28;10279831;28;20124;-59
2021/12/04 17:19:12;;;;;;;50.70;33.90;;;;;;;5.73;68.24;97098.13;10254620;28;20088;-59
2021/12/04 17:24:14;;;;;;;54.95;38.28;;;;;;;5.78;68.27;97095.59;10261084;28;20483;-59
2021/12/04 17:29:14;;;;;;;54.28;36.22;;;;;;;5.71;68.38;97090.38;10260061;28;20068;-59
2021/12/04 17:34:14;;;;;;;64.95;44.70;;;;;;;5.63;69.17;97083.47;10292050;28;20065;-59
2021/12/04 17:39:14;;;;;;;59.17;41.72;;;;;;;5.43;69.31;97071.28;10293725;28;20053;-59
2021/12/04 17:44:19;;;;;;;68.50;47.00;;;;;;;5.46;70.16;97091.94;10293069;28;20057;-59
2021/12/04 17:49:19;;;;;;;54.30;35.88;;;;;;;5.18;70.68;97056.50;10292533;28;20080;-59
2021/12/04 17:54:19;;;;;;;66.40;44.67;;;;;;;5.16;71.84;97089.94;10272277;28;20675;-59
2021/12/04 17:59:18;;;;;;;;;;;;;;;5.12;72.20;97083.88;10253629;28;20077;-59
2021/12/04 18:04:25;;;;;;;41.60;27.23;;;;;;;5.09;72.28;97071.00;10253071;28;19952;-59
2021/12/04 18:09:26;;;;;;;49.50;34.25;;;;;;;5.03;72.83;97076.09;10281950;28;20060;-59
2021/12/04 18:14:25;;;;;;;57.88;37.30;;;;;;;4.62;73.86;97017.38;10293422;28;20053;-59
2021/12/04 18:19:26;;;;;;;74.53;45.58;;;;;;;4.92;73.84;97077.66;10292035;28;20046;-59
2021/12/04 18:24:27;;;;;;;56.35;38.05;;;;;;;4.85;74.14;97075.84;10292881;28;20072;-59
2021/12/04 18:29:27;;;;;;;56.97;34.97;;;;;;;4.70;74.72;97066.28;10292271;28;20061;-59
2021/12/04 18:34:27;;;;;;;51.38;35.45;;;;;;;4.59;74.53;97079.00;10292404;28;20491;-59
2021/12/04 18:39:27;;;;;;;;;;;;;;;4.54;74.48;97074.66;10292258;28;20050;-59
2021/12/04 18:44:26;;;;;;;;;;;;;;;4.42;74.33;97070.25;10291217;28;20607;-59
2021/12/04 18:49:26;;;;;;;57.97;36.75;;;;;;;3.96;74.37;97011.44;10289375;28;19967;-59
2021/12/04 18:54:26;;;;;;;56.08;34.88;;;;;;;4.21;74.84;97068.28;10292280;28;20057;-59
2021/12/04 18:59:26;;;;;;;53.50;32.72;;;;;;;4.04;75.18;97075.75;10290391;28;20060;-59
2021/12/04 19:04:26;;;;;;;37.85;25.95;;;;;;;3.94;75.38;97066.19;10290901;28;20061;-59
2021/12/04 19:09:27;;;;;;;34.67;24.20;;;;;;;3.65;75.85;97051.25;10291366;28;20081;-59
2021/12/04 19:14:30;;;;;;;35.53;22.42;;;;;;;3.45;75.40;97017.59;10291470;28;20054;-59
2021/12/04 19:19:29;;;;;;;39.42;25.67;;;;;;;3.68;75.07;97035.88;10291223;28;20475;-59
2021/12/04 19:24:29;;;;;;;56.92;32.35;;;;;;;3.88;75.20;97059.28;10291037;28;20125;-59
2021/12/04 19:29:28;;;;;;;87.78;55.60;;;;;;;3.75;75.59;97058.25;10290891;28;20470;-59
2021/12/04 19:50:50;;;;;;;118.10;71.30;;;;;;;3.00;77.97;97055.34;10297049;28;20078;-59
2021/12/04 19:55:52;;;;;;;71.22;43.60;;;;;;;2.87;78.23;97053.41;10298710;28;20076;-59
2021/12/04 20:01:04;;;;;;;46.88;29.10;;;;;;;2.79;77.66;97065.19;10297598;28;20093;-59
2021/12/04 20:06:20;;;;;;;51.55;31.85;;;;;;;2.75;77.71;97058.31;10297977;28;20072;-58
2021/12/04 20:16:37;;;;;;;87.65;51.80;;;;;;;2.46;79.02;97079.09;10293583;28;20057;-59
2021/12/04 20:21:51;;;;;;;92.63;53.97;;;;;;;2.24;79.93;97048.78;10297988;28;20064;-59
2021/12/04 20:26:57;;;;;;;85.47;51.25;;;;;;;2.43;80.05;97068.78;10296331;28;20072;-59
2021/12/04 21:08:36;;;;;;;72.75;47.78;;;;;;;2.44;79.71;97014.19;10295601;28;20088;-59
2021/12/04 21:50:47;;;;;;;87.22;48.95;;;;;;;1.86;80.80;97053.97;10293368;28;20499;-59
2021/12/04 22:11:34;;;;;;;87.38;50.08;;;;;;;1.35;82.75;97040.03;10294237;28;20424;-59
2021/12/04 22:17:02;;;;;;;69.00;37.50;;;;;;;1.16;83.23;97043.84;10292453;28;20057;-59
2021/12/04 22:58:51;;;;;;;55.75;29.67;;;;;;;0.74;83.57;97000.22;10292520;28;20057;-59
2021/12/04 23:14:47;;;;;;;62.00;33.88;;;;;;;0.84;83.82;96972.38;10253005;28;20061;-58
2021/12/04 23:52:28;;;;;;;103.80;54.97;;;;;;;0.38;84.16;96926.97;10297374;28;20130;-59
